createdAt,value
2023-01-10T00:00:13.903Z,2.29
2023-01-10T00:02:41.057Z,2.06
2023-01-10T00:05:08.467Z,2.12
2023-01-10T00:07:36.739Z,2.36
2023-01-10T00:10:04.219Z,2.27
2023-01-10T00:12:49.853Z,2.11
2023-01-10T00:15:18.894Z,1.91
2023-01-10T00:17:45.860Z,2.21
2023-01-10T00:20:13.093Z,2.28
2023-01-10T00:22:40.108Z,2.12
2023-01-10T00:25:07.793Z,1.84
2023-01-10T00:27:35.849Z,1.87
2023-01-10T00:30:13.972Z,2.22
2023-01-10T00:32:42.396Z,2.22
2023-01-10T00:35:10.978Z,1.97
2023-01-10T00:37:38.976Z,1.76
2023-01-10T00:40:10.715Z,1.78
2023-01-10T00:42:56.319Z,2.11
2023-01-10T00:45:25.090Z,2.06
2023-01-10T00:47:52.504Z,1.83
2023-01-10T00:50:19.385Z,1.61
2023-01-10T00:52:46.345Z,1.73
2023-01-10T00:55:13.172Z,2.01
2023-01-10T00:57:40.103Z,1.94
2023-01-10T01:00:09.401Z,1.77
2023-01-10T01:02:36.548Z,1.53
2023-01-10T01:05:04.352Z,1.76
2023-01-10T01:07:31.269Z,2.00
2023-01-10T01:10:16.998Z,1.90
2023-01-10T01:12:44.058Z,1.68
2023-01-10T01:15:12.332Z,1.58
2023-01-10T01:17:39.973Z,1.89
2023-01-10T01:20:07.965Z,2.03
2023-01-10T01:22:34.806Z,1.87
2023-01-10T01:25:02.056Z,1.62
2023-01-10T01:27:28.962Z,1.60
2023-01-10T01:29:55.887Z,1.97
2023-01-10T01:32:23.275Z,2.02
2023-01-10T01:34:50.429Z,1.83
2023-01-10T01:37:19.773Z,1.62
2023-01-10T01:39:49.521Z,1.56
2023-01-10T01:42:31.220Z,1.92
2023-01-10T01:45:19.618Z,1.97
2023-01-10T01:48:00.288Z,1.73
2023-01-10T01:50:36.436Z,1.53
2023-01-10T01:53:05.994Z,1.76
2023-01-10T01:55:32.829Z,1.97
2023-01-10T01:58:01.243Z,1.86
2023-01-10T02:00:28.072Z,1.65
2023-01-10T02:03:02.584Z,1.52
2023-01-10T02:05:30.774Z,1.86
2023-01-10T02:07:58.308Z,1.85
2023-01-10T02:10:36.818Z,1.68
2023-01-10T02:13:05.323Z,1.44
2023-01-10T02:15:32.378Z,1.57
2023-01-10T02:17:59.292Z,1.70
2023-01-10T02:20:26.808Z,1.62
2023-01-10T02:23:21.354Z,1.40
2023-01-10T02:26:27.132Z,1.33
2023-01-10T02:29:42.484Z,1.67
2023-01-10T02:32:42.065Z,1.50
2023-01-10T02:35:16.729Z,1.20
2023-01-10T02:38:16.064Z,1.07
2023-01-10T02:41:06.535Z,1.31
2023-01-10T02:43:47.273Z,1.17
2023-01-10T02:46:24.679Z,0.87
2023-01-10T02:48:55.445Z,0.59
2023-01-10T02:51:29.658Z,0.79
2023-01-10T02:54:03.925Z,0.87
2023-01-10T02:56:44.716Z,0.68
2023-01-10T02:59:30.096Z,0.41
2023-01-10T03:02:25.912Z,0.46
2023-01-10T03:05:03.605Z,0.74
2023-01-10T03:07:44.350Z,0.62
2023-01-10T03:10:18.389Z,0.46
2023-01-10T03:12:52.816Z,0.24
2023-01-10T03:15:20.174Z,0.52
2023-01-10T03:17:50.289Z,0.68
2023-01-10T03:20:18.048Z,0.57
2023-01-10T03:22:44.872Z,0.32
2023-01-10T03:25:12.294Z,0.29
2023-01-10T03:27:45.276Z,0.58
2023-01-10T03:30:28.545Z,0.57
2023-01-10T03:32:57.187Z,0.35
2023-01-10T03:35:29.723Z,0.12
2023-01-10T03:37:59.136Z,0.18
2023-01-10T03:40:33.962Z,0.45
2023-01-10T03:43:21.794Z,0.37
2023-01-10T03:45:54.154Z,0.16
2023-01-10T03:48:21.191Z,0.07
2023-01-10T03:50:48.072Z,0.38
2023-01-10T03:53:15.403Z,0.34
2023-01-10T03:55:42.483Z,0.15
2023-01-10T03:58:09.390Z,-0.04
2023-01-10T04:00:36.292Z,0.28
2023-01-10T04:03:03.415Z,0.49
2023-01-10T04:05:30.301Z,0.34
2023-01-10T04:07:57.254Z,0.04
2023-01-10T04:10:27.284Z,-0.18
2023-01-10T04:12:54.277Z,0.05
2023-01-10T04:15:21.195Z,0.14
2023-01-10T04:17:49.042Z,0.04
2023-01-10T04:20:16.151Z,-0.25
2023-01-10T04:22:44.985Z,-0.52
2023-01-10T04:25:12.008Z,-0.48
2023-01-10T04:27:38.995Z,-0.32
2023-01-10T04:30:07.146Z,-0.42
2023-01-10T04:32:34.035Z,-0.69
2023-01-10T04:35:01.033Z,-0.79
2023-01-10T04:37:27.843Z,-0.44
2023-01-10T04:39:54.823Z,-0.33
2023-01-10T04:42:21.769Z,-0.50
2023-01-10T04:44:48.734Z,-0.76
2023-01-10T04:47:16.075Z,-0.90
2023-01-10T04:49:42.973Z,-0.61
2023-01-10T04:52:10.793Z,-0.53
2023-01-10T04:54:37.680Z,-0.67
2023-01-10T04:57:05.893Z,-0.87
2023-01-10T04:59:33.559Z,-1.14
2023-01-10T05:02:00.561Z,-0.94
2023-01-10T05:04:27.853Z,-0.80
2023-01-10T05:06:54.761Z,-0.92
2023-01-10T05:09:21.638Z,-1.18
2023-01-10T05:11:48.600Z,-1.32
2023-01-10T05:14:15.467Z,-0.97
2023-01-10T05:16:42.410Z,-0.82
2023-01-10T05:19:09.721Z,-0.94
2023-01-10T05:21:36.673Z,-1.21
2023-01-10T05:24:03.602Z,-1.39
2023-01-10T05:26:30.523Z,-1.14
2023-01-10T05:28:57.572Z,-1.03
2023-01-10T05:31:24.520Z,-1.11
2023-01-10T05:33:52.036Z,-1.27
2023-01-10T05:36:19.474Z,-1.43
2023-01-10T05:38:46.635Z,-1.31
2023-01-10T05:41:13.557Z,-1.11
2023-01-10T05:43:40.439Z,-1.21
2023-01-10T05:46:07.509Z,-1.45
2023-01-10T05:48:34.482Z,-1.68
2023-01-10T05:51:01.379Z,-1.49
2023-01-10T05:53:28.462Z,-1.29
2023-01-10T05:56:00.271Z,-1.35
2023-01-10T05:58:27.528Z,-1.58
2023-01-10T06:00:55.064Z,-1.72
2023-01-10T06:03:22.207Z,-1.44
2023-01-10T06:05:49.377Z,-1.40
2023-01-10T06:08:16.881Z,-1.53
2023-01-10T06:10:44.059Z,-1.72
2023-01-10T06:13:12.350Z,-1.82
2023-01-10T06:15:39.478Z,-1.49
2023-01-10T06:18:06.927Z,-1.45
2023-01-10T06:20:34.208Z,-1.56
2023-01-10T06:23:04.786Z,-1.73
2023-01-10T06:25:33.691Z,-1.70
2023-01-10T06:28:00.783Z,-1.34
2023-01-10T06:30:27.917Z,-1.37
2023-01-10T06:32:54.887Z,-1.48
2023-01-10T06:35:21.902Z,-1.62
2023-01-10T06:37:48.858Z,-1.49
2023-01-10T06:40:16.550Z,-1.22
2023-01-10T06:42:43.448Z,-1.29
2023-01-10T06:45:11.157Z,-1.44
2023-01-10T06:47:38.689Z,-1.62
2023-01-10T06:50:07.052Z,-1.33
2023-01-10T06:52:34.123Z,-1.03
2023-01-10T06:55:01.260Z,-1.11
2023-01-10T06:57:31.008Z,-1.31
2023-01-10T06:59:58.004Z,-1.48
2023-01-10T07:02:25.096Z,-1.38
2023-01-10T07:04:52.197Z,-1.08
2023-01-10T07:07:19.253Z,-1.11
2023-01-10T07:09:46.553Z,-1.30
2023-01-10T07:12:13.644Z,-1.46
2023-01-10T07:14:40.643Z,-1.35
2023-01-10T07:17:07.606Z,-1.04
2023-01-10T07:19:34.560Z,-1.05
2023-01-10T07:22:01.455Z,-1.16
2023-01-10T07:24:28.479Z,-1.33
2023-01-10T07:26:56.526Z,-1.31
2023-01-10T07:29:23.437Z,-0.97
2023-01-10T07:31:51.866Z,-1.00
2023-01-10T07:34:18.950Z,-1.21
2023-01-10T07:36:45.970Z,-1.38
2023-01-10T07:39:12.960Z,-1.08
2023-01-10T07:41:39.952Z,-0.72
2023-01-10T07:44:06.963Z,-0.66
2023-01-10T07:46:33.966Z,-0.76
2023-01-10T07:49:00.889Z,-1.00
2023-01-10T07:51:27.766Z,-1.09
2023-01-10T07:53:54.670Z,-0.71
2023-01-10T07:56:21.851Z,-0.58
2023-01-10T07:58:48.705Z,-0.74
2023-01-10T08:01:15.953Z,-0.90
2023-01-10T08:03:43.210Z,-1.07
2023-01-10T08:06:11.334Z,-0.95
2023-01-10T08:08:38.556Z,-0.57
2023-01-10T08:11:05.660Z,-0.53
2023-01-10T08:13:33.737Z,-0.67
2023-01-10T08:16:05.063Z,-0.82
2023-01-10T08:18:32.419Z,-0.98
2023-01-10T08:20:59.604Z,-0.70
2023-01-10T08:23:27.121Z,-0.51
2023-01-10T08:25:54.570Z,-0.64
2023-01-10T08:28:21.645Z,-0.79
2023-01-10T08:30:50.496Z,-0.90
2023-01-10T08:33:17.732Z,-0.55
2023-01-10T08:35:44.829Z,-0.34
2023-01-10T08:38:11.865Z,-0.46
2023-01-10T08:40:38.847Z,-0.71
2023-01-10T08:43:07.425Z,-0.94
2023-01-10T08:45:34.627Z,-0.81
2023-01-10T08:48:02.130Z,-0.34
2023-01-10T08:50:29.254Z,-0.27
2023-01-10T08:53:00.257Z,-0.44
2023-01-10T08:55:28.243Z,-0.81
2023-01-10T08:57:55.520Z,-1.03
2023-01-10T09:00:23.330Z,-1.15
2023-01-10T09:02:50.444Z,-0.87
2023-01-10T09:05:26.766Z,-0.80
2023-01-10T09:08:01.356Z,-1.02
2023-01-10T09:10:29.210Z,-1.23
2023-01-10T09:12:59.993Z,-1.30
2023-01-10T09:15:32.371Z,-0.85
2023-01-10T09:18:05.102Z,-0.69
2023-01-10T09:20:33.056Z,-0.81
2023-01-10T09:23:01.910Z,-1.07
2023-01-10T09:25:28.875Z,-1.25
2023-01-10T09:27:59.706Z,-1.14
2023-01-10T09:30:27.459Z,-0.78
2023-01-10T09:32:54.932Z,-0.76
2023-01-10T09:35:22.790Z,-0.92
2023-01-10T09:37:50.687Z,-1.18
2023-01-10T09:40:19.980Z,-1.42
2023-01-10T09:43:17.032Z,-1.18
2023-01-10T09:45:56.927Z,-0.81
2023-01-10T09:48:42.833Z,-0.91
2023-01-10T09:51:20.151Z,-1.08
2023-01-10T09:53:47.077Z,-1.28
2023-01-10T09:56:15.148Z,-1.25
2023-01-10T09:58:42.106Z,-0.88
2023-01-10T10:01:38.738Z,-0.81
2023-01-10T10:04:12.119Z,-0.97
2023-01-10T10:06:39.282Z,-1.17
2023-01-10T10:09:06.235Z,-1.33
2023-01-10T10:12:01.844Z,-1.01
2023-01-10T10:14:45.285Z,-0.77
2023-01-10T10:17:28.464Z,-0.91
2023-01-10T10:20:20.103Z,-1.12
2023-01-10T10:23:04.780Z,-1.44
2023-01-10T10:25:34.575Z,-1.19
2023-01-10T10:28:37.354Z,-1.06
2023-01-10T10:31:15.081Z,-1.24
2023-01-10T10:33:51.374Z,-1.48
2023-01-10T10:36:29.609Z,-1.63
2023-01-10T10:38:58.333Z,-1.35
2023-01-10T10:41:28.262Z,-1.20
2023-01-10T10:43:55.187Z,-1.38
2023-01-10T10:46:22.408Z,-1.62
2023-01-10T10:48:50.986Z,-1.80
2023-01-10T10:51:27.712Z,-1.80
2023-01-10T10:53:55.885Z,-1.40
2023-01-10T10:56:23.784Z,-1.29
2023-01-10T10:58:53.915Z,-1.47
2023-01-10T11:01:21.166Z,-1.64
2023-01-10T11:03:54.339Z,-1.81
2023-01-10T11:06:21.262Z,-1.54
2023-01-10T11:08:49.454Z,-1.22
2023-01-10T11:11:34.242Z,-1.26
2023-01-10T11:14:06.180Z,-1.48
2023-01-10T11:16:41.303Z,-1.77
2023-01-10T11:19:27.160Z,-1.99
2023-01-10T11:22:01.092Z,-1.56
2023-01-10T11:24:33.152Z,-1.39
2023-01-10T11:27:03.161Z,-1.46
2023-01-10T11:29:43.723Z,-1.70
2023-01-10T11:32:15.222Z,-1.93
2023-01-10T11:34:48.313Z,-1.73
2023-01-10T11:37:32.960Z,-1.40
2023-01-10T11:40:26.873Z,-1.49
2023-01-10T11:42:55.169Z,-1.78
2023-01-10T11:45:23.865Z,-2.04
2023-01-10T11:47:57.098Z,-1.88
2023-01-10T11:50:26.063Z,-1.65
2023-01-10T11:52:53.395Z,-1.66
2023-01-10T11:55:21.736Z,-1.82
2023-01-10T11:58:15.339Z,-2.00
2023-01-10T12:00:49.146Z,-1.90
2023-01-10T12:03:25.013Z,-1.61
2023-01-10T12:05:53.454Z,-1.67
2023-01-10T12:08:31.512Z,-1.92
2023-01-10T12:11:01.964Z,-2.09
2023-01-10T12:13:30.852Z,-2.04
2023-01-10T12:16:17.617Z,-1.72
2023-01-10T12:18:45.184Z,-1.67
2023-01-10T12:21:13.457Z,-1.82
2023-01-10T12:23:41.841Z,-2.08
2023-01-10T12:26:12.269Z,-2.03
2023-01-10T12:28:58.881Z,-1.69
2023-01-10T12:31:26.007Z,-1.66
2023-01-10T12:33:59.121Z,-1.87
2023-01-10T12:36:46.729Z,-2.12
2023-01-10T12:39:18.279Z,-2.27
2023-01-10T12:42:26.286Z,-1.86
2023-01-10T12:45:05.477Z,-1.83
2023-01-10T12:47:34.287Z,-2.04
2023-01-10T12:50:01.497Z,-2.26
2023-01-10T12:52:47.599Z,-2.42
2023-01-10T12:55:21.177Z,-2.14
2023-01-10T12:57:51.863Z,-2.04
2023-01-10T13:00:48.231Z,-2.11
2023-01-10T13:03:19.980Z,-2.42
2023-01-10T13:06:06.065Z,-2.62
2023-01-10T13:08:34.367Z,-2.28
2023-01-10T13:11:01.741Z,-2.20
2023-01-10T13:13:31.812Z,-2.33
2023-01-10T13:16:17.408Z,-2.59
2023-01-10T13:19:09.645Z,-2.75
2023-01-10T13:21:40.471Z,-2.42
2023-01-10T13:24:20.937Z,-2.28
2023-01-10T13:26:52.826Z,-2.51
2023-01-10T13:29:26.966Z,-2.73
2023-01-10T13:32:00.620Z,-2.71
2023-01-10T13:34:34.719Z,-2.33
2023-01-10T13:37:05.104Z,-2.34
2023-01-10T13:39:35.983Z,-2.49
2023-01-10T13:42:21.635Z,-2.74
2023-01-10T13:45:01.400Z,-2.66
2023-01-10T13:47:40.706Z,-2.30
2023-01-10T13:50:23.518Z,-2.37
2023-01-10T13:52:53.978Z,-2.68
2023-01-10T13:55:34.312Z,-2.84
2023-01-10T13:58:03.007Z,-2.52
2023-01-10T14:00:52.017Z,-2.41
2023-01-10T14:03:41.094Z,-2.51
2023-01-10T14:06:30.973Z,-2.77
2023-01-10T14:08:59.923Z,-2.59
2023-01-10T14:11:48.062Z,-2.45
2023-01-10T14:14:30.171Z,-2.58
2023-01-10T14:16:59.073Z,-2.81
2023-01-10T14:19:31.191Z,-2.73
2023-01-10T14:22:00.798Z,-2.31
2023-01-10T14:24:43.894Z,-2.33
2023-01-10T14:27:15.205Z,-2.58
2023-01-10T14:29:47.791Z,-2.82
2023-01-10T14:32:21.010Z,-2.57
2023-01-10T14:34:49.461Z,-2.39
2023-01-10T14:37:24.000Z,-2.56
2023-01-10T14:39:53.278Z,-2.75
2023-01-10T14:42:20.242Z,-2.93
2023-01-10T14:45:02.038Z,-2.59
2023-01-10T14:47:35.574Z,-2.40
2023-01-10T14:50:06.308Z,-2.55
2023-01-10T14:52:33.493Z,-2.80
2023-01-10T14:55:11.205Z,-3.00
2023-01-10T14:57:38.166Z,-2.67
2023-01-10T15:00:14.102Z,-2.47
2023-01-10T15:02:46.076Z,-2.56
2023-01-10T15:05:17.720Z,-2.77
2023-01-10T15:07:44.633Z,-2.98
2023-01-10T15:10:21.181Z,-2.70
2023-01-10T15:12:48.184Z,-2.38
2023-01-10T15:15:19.815Z,-2.49
2023-01-10T15:17:46.798Z,-2.74
2023-01-10T15:20:17.904Z,-2.97
2023-01-10T15:22:48.179Z,-2.86
2023-01-10T15:25:21.340Z,-2.48
2023-01-10T15:27:50.633Z,-2.45
2023-01-10T15:30:21.864Z,-2.71
2023-01-10T15:33:11.297Z,-2.93
2023-01-10T15:35:38.350Z,-2.99
2023-01-10T15:38:13.017Z,-2.59
2023-01-10T15:40:39.980Z,-2.50
2023-01-10T15:43:46.030Z,-2.70
2023-01-10T15:46:23.725Z,-3.01
2023-01-10T15:49:01.898Z,-2.91
2023-01-10T15:51:38.111Z,-2.59
2023-01-10T15:54:20.464Z,-2.63
2023-01-10T15:56:51.295Z,-2.85
2023-01-10T15:59:29.144Z,-3.07
2023-01-10T16:01:58.314Z,-2.80
2023-01-10T16:04:25.475Z,-2.52
2023-01-10T16:06:55.232Z,-2.58
2023-01-10T16:09:23.167Z,-2.84
2023-01-10T16:12:10.164Z,-3.01
2023-01-10T16:14:38.065Z,-2.75
2023-01-10T16:17:05.624Z,-2.40
2023-01-10T16:19:32.865Z,-2.41
2023-01-10T16:21:59.884Z,-2.55
2023-01-10T16:24:31.233Z,-2.77
2023-01-10T16:27:00.532Z,-2.95
2023-01-10T16:29:27.477Z,-2.63
2023-01-10T16:31:54.441Z,-2.24
2023-01-10T16:34:21.496Z,-2.33
2023-01-10T16:36:48.564Z,-2.51
2023-01-10T16:39:20.553Z,-2.74
2023-01-10T16:42:05.938Z,-2.95
2023-01-10T16:44:33.220Z,-2.73
2023-01-10T16:47:00.681Z,-2.47
2023-01-10T16:49:27.604Z,-2.49
2023-01-10T16:51:56.568Z,-2.63
2023-01-10T16:54:26.922Z,-2.76
2023-01-10T16:56:53.982Z,-2.89
2023-01-10T16:59:20.988Z,-2.44
2023-01-10T17:01:55.252Z,-2.10
2023-01-10T17:04:24.535Z,-2.16
2023-01-10T17:06:51.578Z,-2.34
2023-01-10T17:09:38.859Z,-2.56
2023-01-10T17:12:07.431Z,-2.77
2023-01-10T17:14:35.297Z,-2.86
2023-01-10T17:17:05.017Z,-2.51
2023-01-10T17:19:31.987Z,-2.26
2023-01-10T17:22:00.394Z,-2.36
2023-01-10T17:24:29.750Z,-2.63
2023-01-10T17:26:56.929Z,-2.79
2023-01-10T17:29:23.856Z,-2.92
2023-01-10T17:31:50.949Z,-2.61
2023-01-10T17:34:18.100Z,-2.16
2023-01-10T17:36:45.021Z,-2.11
2023-01-10T17:39:11.932Z,-2.31
2023-01-10T17:41:38.943Z,-2.54
2023-01-10T17:44:05.873Z,-2.78
2023-01-10T17:46:32.783Z,-2.96
2023-01-10T17:48:59.615Z,-2.59
2023-01-10T17:51:28.920Z,-2.26
2023-01-10T17:53:55.847Z,-2.30
2023-01-10T17:56:23.155Z,-2.45
2023-01-10T17:58:51.836Z,-2.65
2023-01-10T18:01:22.869Z,-2.88
2023-01-10T18:03:51.757Z,-2.76
2023-01-10T18:06:25.611Z,-2.39
2023-01-10T18:08:53.511Z,-2.28
2023-01-10T18:11:21.504Z,-2.42
2023-01-10T18:13:48.631Z,-2.67
2023-01-10T18:16:15.619Z,-2.86
2023-01-10T18:18:42.984Z,-2.74
2023-01-10T18:21:14.639Z,-2.28
2023-01-10T18:23:42.158Z,-2.18
2023-01-10T18:26:10.264Z,-2.30
2023-01-10T18:28:47.756Z,-2.56
2023-01-10T18:31:16.486Z,-2.74
2023-01-10T18:33:44.672Z,-2.87
2023-01-10T18:36:17.809Z,-2.50
2023-01-10T18:38:46.274Z,-2.09
2023-01-10T18:41:16.557Z,-2.13
2023-01-10T18:43:43.559Z,-2.29
2023-01-10T18:46:13.714Z,-2.50
2023-01-10T18:48:40.782Z,-2.69
2023-01-10T18:51:10.111Z,-2.75
2023-01-10T18:53:37.068Z,-2.33
2023-01-10T18:56:07.443Z,-2.13
2023-01-10T18:58:38.949Z,-2.28
2023-01-10T19:01:13.721Z,-2.43
2023-01-10T19:03:43.700Z,-2.64
2023-01-10T19:06:11.760Z,-2.68
2023-01-10T19:08:42.591Z,-2.14
2023-01-10T19:11:15.128Z,-1.86
2023-01-10T19:13:46.047Z,-2.04
2023-01-10T19:16:22.723Z,-2.27
2023-01-10T19:18:52.788Z,-2.48
2023-01-10T19:21:21.410Z,-2.63
2023-01-10T19:23:52.614Z,-2.23
2023-01-10T19:26:20.498Z,-1.89
2023-01-10T19:28:47.480Z,-1.92
2023-01-10T19:31:16.218Z,-2.10
2023-01-10T19:33:44.200Z,-2.33
2023-01-10T19:36:14.775Z,-2.55
2023-01-10T19:38:41.682Z,-2.38
2023-01-10T19:41:08.646Z,-1.93
2023-01-10T19:43:35.650Z,-1.87
2023-01-10T19:46:09.747Z,-1.98
2023-01-10T19:48:38.387Z,-2.19
2023-01-10T19:51:10.524Z,-2.36
2023-01-10T19:53:38.254Z,-2.48
2023-01-10T19:56:07.578Z,-2.06
2023-01-10T19:58:35.971Z,-1.91
2023-01-10T20:01:10.456Z,-2.04
2023-01-10T20:03:38.788Z,-2.23
2023-01-10T20:06:06.188Z,-2.46
2023-01-10T20:08:33.297Z,-2.29
2023-01-10T20:11:06.872Z,-1.83
2023-01-10T20:13:35.526Z,-1.77
2023-01-10T20:16:05.786Z,-1.92
2023-01-10T20:18:32.774Z,-2.16
2023-01-10T20:21:06.629Z,-2.35
2023-01-10T20:23:34.931Z,-2.32
2023-01-10T20:26:06.657Z,-1.82
2023-01-10T20:28:33.869Z,-1.67
2023-01-10T20:31:00.875Z,-1.80
2023-01-10T20:33:28.188Z,-2.00
2023-01-10T20:36:04.068Z,-2.21
2023-01-10T20:38:31.503Z,-2.40
2023-01-10T20:40:59.509Z,-2.03
2023-01-10T20:43:26.509Z,-1.72
2023-01-10T20:45:53.559Z,-1.81
2023-01-10T20:48:20.606Z,-1.98
2023-01-10T20:50:47.609Z,-2.17
2023-01-10T20:53:14.962Z,-2.30
2023-01-10T20:55:41.949Z,-2.02
2023-01-10T20:58:08.909Z,-1.49
2023-01-10T21:00:35.923Z,-1.41
2023-01-10T21:03:02.964Z,-1.59
2023-01-10T21:05:29.993Z,-1.86
2023-01-10T21:07:56.903Z,-2.04
2023-01-10T21:10:24.000Z,-2.20
2023-01-10T21:12:51.388Z,-1.78
2023-01-10T21:15:18.364Z,-1.54
2023-01-10T21:17:45.295Z,-1.62
2023-01-10T21:20:13.721Z,-1.77
2023-01-10T21:22:40.608Z,-2.02
2023-01-10T21:25:07.872Z,-2.05
2023-01-10T21:27:34.817Z,-1.62
2023-01-10T21:30:01.878Z,-1.48
2023-01-10T21:32:28.845Z,-1.73
2023-01-10T21:34:55.762Z,-1.94
2023-01-10T21:37:22.792Z,-2.14
2023-01-10T21:39:49.799Z,-1.96
2023-01-10T21:42:34.866Z,-1.59
2023-01-10T21:45:02.095Z,-1.61
2023-01-10T21:47:29.104Z,-1.82
2023-01-10T21:49:56.929Z,-2.01
2023-01-10T21:52:23.890Z,-2.17
2023-01-10T21:54:50.943Z,-1.90
2023-01-10T21:57:22.042Z,-1.51
2023-01-10T21:59:50.153Z,-1.52
2023-01-10T22:02:18.957Z,-1.69
2023-01-10T22:04:53.577Z,-1.94
2023-01-10T22:07:21.481Z,-2.15
2023-01-10T22:09:52.056Z,-1.87
2023-01-10T22:12:19.893Z,-1.53
2023-01-10T22:14:47.044Z,-1.61
2023-01-10T22:17:14.282Z,-1.79
2023-01-10T22:19:41.579Z,-2.03
2023-01-10T22:22:08.752Z,-2.04
2023-01-10T22:24:35.824Z,-1.67
2023-01-10T22:27:02.858Z,-1.58
2023-01-10T22:29:29.883Z,-1.70
2023-01-10T22:31:56.934Z,-1.90
2023-01-10T22:34:25.937Z,-2.14
2023-01-10T22:36:55.508Z,-1.89
2023-01-10T22:39:24.959Z,-1.56
2023-01-10T22:41:54.079Z,-1.64
2023-01-10T22:44:25.947Z,-1.86
2023-01-10T22:46:55.347Z,-2.07
2023-01-10T22:49:24.508Z,-2.04
2023-01-10T22:51:53.973Z,-1.62
2023-01-10T22:54:25.962Z,-1.59
2023-01-10T22:56:55.970Z,-1.77
2023-01-10T22:59:25.313Z,-1.97
2023-01-10T23:01:54.945Z,-2.16
2023-01-10T23:04:24.288Z,-1.80
2023-01-10T23:06:54.056Z,-1.46
2023-01-10T23:09:23.952Z,-1.50
2023-01-10T23:11:53.328Z,-1.68
2023-01-10T23:14:23.392Z,-1.92
2023-01-10T23:16:53.076Z,-2.10
2023-01-10T23:19:22.328Z,-1.75
2023-01-10T23:21:52.036Z,-1.53
2023-01-10T23:24:21.438Z,-1.61
2023-01-10T23:26:51.146Z,-1.79
2023-01-10T23:29:21.023Z,-2.00
2023-01-10T23:31:50.776Z,-2.10
2023-01-10T23:34:21.038Z,-1.66
2023-01-10T23:44:56.997Z,-1.99
2023-01-10T23:47:27.613Z,-1.94
2023-01-10T23:49:54.882Z,-1.53
2023-01-10T23:52:21.805Z,-1.50
2023-01-10T23:54:48.808Z,-1.63
2023-01-10T23:57:16.115Z,-1.87
2023-01-10T23:59:43.001Z,-2.12
